createdAt,value
2022-10-22T00:03:35.368Z,19.29931640625
2022-10-22T00:13:35.356Z,19.8974609375
2022-10-22T00:23:35.238Z,20.49560546875
2022-10-22T00:33:35.159Z,20.49560546875
2022-10-22T00:43:35.078Z,21.30126953125
2022-10-22T00:53:34.999Z,21.49658203125
2022-10-22T01:03:34.950Z,21.30126953125
2022-10-22T01:13:34.855Z,21.7041015625
2022-10-22T01:23:34.887Z,21.49658203125
2022-10-22T01:33:34.835Z,21.39892578125
2022-10-22T01:43:34.648Z,21.10595703125
2022-10-22T01:53:34.656Z,21.59423828125
2022-10-22T02:13:34.414Z,21.9970703125
2022-10-22T02:23:34.340Z,21.30126953125
2022-10-22T02:33:34.271Z,20.99609375
2022-10-22T02:43:34.208Z,20.80078125
2022-10-22T02:53:34.125Z,20.39794921875
2022-10-22T03:03:34.053Z,19.6044921875
2022-10-22T03:13:33.988Z,19.49462890625
2022-10-22T03:23:33.920Z,18.701171875
2022-10-22T03:33:33.825Z,17.39501953125
2022-10-22T03:43:33.744Z,16.69921875
2022-10-22T03:53:33.691Z,15.6982421875
2022-10-22T04:03:33.604Z,15.4052734375
2022-10-22T04:13:33.543Z,15.00244140625
2022-10-22T04:23:33.470Z,14.794921875
2022-10-22T04:33:33.393Z,14.404296875
2022-10-22T04:43:33.312Z,14.00146484375
2022-10-22T04:53:33.228Z,13.6962890625
2022-10-22T05:03:33.286Z,13.5986328125
2022-10-22T05:13:33.095Z,13.4033203125
2022-10-22T05:23:33.018Z,13.19580078125
2022-10-22T05:33:32.940Z,13.00048828125
2022-10-22T05:43:32.850Z,12.6953125
2022-10-22T05:53:32.798Z,12.40234375
2022-10-22T06:03:32.721Z,11.99951171875
2022-10-22T06:13:32.645Z,11.90185546875
2022-10-22T06:23:32.576Z,11.602783203125
2022-10-22T06:33:32.505Z,11.4013671875
2022-10-22T06:43:32.446Z,11.199951171875
2022-10-22T06:53:32.366Z,11.102294921875
2022-10-22T07:03:32.303Z,10.90087890625
2022-10-22T07:13:32.212Z,10.699462890625
2022-10-22T07:23:32.152Z,10.400390625
2022-10-22T07:33:32.076Z,10.198974609375
2022-10-22T07:43:32.016Z,9.99755859375
2022-10-22T07:53:31.935Z,10.302734375
2022-10-22T08:03:31.865Z,10.101318359375
2022-10-22T08:13:31.810Z,10.101318359375
2022-10-22T08:23:31.718Z,10.101318359375
2022-10-22T08:33:31.658Z,10.101318359375
2022-10-22T08:43:31.592Z,10.101318359375
2022-10-22T08:53:31.554Z,9.99755859375
2022-10-22T09:03:31.549Z,9.99755859375
2022-10-22T09:13:31.373Z,9.89990234375
2022-10-22T09:23:31.322Z,10.198974609375
2022-10-22T09:33:31.248Z,9.99755859375
2022-10-22T09:43:31.175Z,10.101318359375
2022-10-22T09:53:31.112Z,10.198974609375
2022-10-22T10:03:31.154Z,10.198974609375
2022-10-22T10:13:31.144Z,10.198974609375
2022-10-22T10:23:30.948Z,10.198974609375
2022-10-22T10:33:30.811Z,10.400390625
2022-10-22T10:43:30.751Z,10.101318359375
2022-10-22T10:53:30.686Z,9.80224609375
2022-10-22T11:03:30.606Z,9.600830078125
2022-10-22T11:13:30.555Z,9.600830078125
2022-10-22T11:23:31.096Z,9.3994140625
2022-10-22T11:33:30.673Z,9.3017578125
2022-10-22T11:43:30.410Z,9.3017578125
2022-10-22T11:53:30.460Z,9.99755859375
2022-10-22T12:03:30.249Z,10.101318359375
2022-10-22T12:13:30.107Z,9.600830078125
2022-10-22T12:23:30.078Z,9.3994140625
2022-10-22T12:33:29.977Z,9.4970703125
2022-10-22T12:43:29.913Z,9.600830078125
2022-10-22T12:53:29.828Z,10.601806640625
2022-10-22T13:03:29.769Z,10.90087890625
2022-10-22T13:13:29.670Z,10.90087890625
2022-10-22T13:23:29.725Z,11.102294921875
2022-10-22T13:33:29.690Z,11.700439453125
2022-10-22T13:43:29.588Z,11.4013671875
2022-10-22T13:53:29.383Z,11.102294921875
2022-10-22T14:03:29.323Z,10.797119140625
2022-10-22T14:13:29.254Z,10.90087890625
2022-10-22T14:23:29.178Z,10.699462890625
2022-10-22T14:33:31.805Z,10.601806640625
2022-10-22T14:43:29.049Z,10.699462890625
2022-10-22T14:53:28.972Z,11.102294921875
2022-10-22T15:03:28.903Z,11.102294921875
2022-10-22T15:13:28.828Z,10.99853515625
2022-10-22T15:23:28.761Z,10.99853515625
2022-10-22T15:33:28.711Z,11.102294921875
2022-10-22T15:43:28.621Z,11.199951171875
2022-10-22T15:53:28.531Z,10.99853515625
2022-10-22T16:03:28.519Z,10.90087890625
2022-10-22T16:13:28.406Z,10.99853515625
2022-10-22T16:23:28.353Z,10.90087890625
2022-10-22T16:33:28.275Z,10.90087890625
2022-10-22T16:43:28.178Z,10.90087890625
2022-10-22T16:53:28.162Z,11.102294921875
2022-10-22T17:03:28.489Z,11.102294921875
2022-10-22T17:13:27.970Z,11.199951171875
2022-10-22T17:23:27.924Z,11.102294921875
2022-10-22T17:33:27.828Z,11.297607421875
2022-10-22T17:43:27.781Z,11.297607421875
2022-10-22T17:53:27.692Z,11.4013671875
2022-10-22T18:03:27.613Z,11.4990234375
2022-10-22T18:13:27.542Z,11.4013671875
2022-10-22T18:23:27.484Z,11.602783203125
2022-10-22T18:33:27.424Z,11.4990234375
2022-10-22T18:43:27.332Z,11.700439453125
2022-10-22T18:53:27.300Z,11.90185546875
2022-10-22T19:03:27.217Z,12.09716796875
2022-10-22T19:13:27.135Z,12.200927734375
2022-10-22T19:23:27.063Z,12.298583984375
2022-10-22T19:33:26.989Z,12.6953125
2022-10-22T19:43:27.020Z,12.90283203125
2022-10-22T19:53:26.849Z,13.09814453125
2022-10-22T20:03:26.776Z,13.3056640625
2022-10-22T20:13:26.720Z,13.5986328125
2022-10-22T20:23:26.646Z,14.00146484375
2022-10-22T20:33:26.540Z,14.90478515625
2022-10-22T20:43:26.595Z,15.10009765625
2022-10-22T20:53:26.425Z,15.90576171875
2022-10-22T21:03:26.400Z,15.6005859375
2022-10-22T21:13:26.288Z,15.19775390625
2022-10-22T21:23:26.206Z,15.29541015625
2022-10-22T21:33:26.125Z,16.00341796875
2022-10-22T21:43:26.096Z,17.00439453125
2022-10-22T21:53:25.999Z,17.10205078125
2022-10-22T22:03:25.909Z,17.5048828125
2022-10-22T22:13:25.854Z,17.7978515625
2022-10-22T22:23:25.761Z,18.29833984375
2022-10-22T22:33:25.697Z,18.603515625
2022-10-22T22:43:25.733Z,18.603515625
2022-10-22T22:53:25.543Z,18.603515625
2022-10-22T23:03:25.463Z,18.603515625
2022-10-22T23:13:25.419Z,19.20166015625
2022-10-22T23:23:25.346Z,19.39697265625
2022-10-22T23:33:25.272Z,19.6044921875
2022-10-22T23:43:25.202Z,19.20166015625
2022-10-22T23:53:25.121Z,18.994140625
